TSC738 CYUL-TFFF
Flight info
| Callsign | TSC738 |
|---|---|
| Flight time | 4h 30m |
| Altitude | 35000 |
| Route | DCT OVAXO DCT VIRKA DCT REGGI DCT KEYNN DCT ALBOW DCT ISLES DCT SQUAD DCT DARUX L459 KEEKA L329 ZPATA DCT GORET DCT EMOLA EMOLA2X |
| Aircraft | A321/M-SDE3FGHIRWY/LB1 |
Departure
| Time | 2026-05-08 09:59 |
|---|---|
| Airport | Montreal / Pierre Elliott Trudeau International Airport (CYUL) |
Arrival
| Time | 2026-05-08 14:29 |
|---|---|
| Airport | Martinique Aimé Césaire International Airport (TFFF) |
| Time | Latitude | Longitude | Altitude | Speed | Heading |
|---|---|---|---|---|---|
| 2026-05-08 09:40 | 45.45858 | -73.75810 | 107 ft | 0 kts | 60° |
| 2026-05-08 09:49 | 45.45855 | -73.75816 | 0 ft | 2 kts | 60° |
| 2026-05-08 09:49 | 45.45847 | -73.75836 | 105 ft | 2 kts | 60° |
| 2026-05-08 09:49 | 45.45840 | -73.75856 | 104 ft | 2 kts | 60° |
| 2026-05-08 09:50 | 45.45832 | -73.75877 | 104 ft | 2 kts | 61° |
| 2026-05-08 09:50 | 45.45824 | -73.75897 | 105 ft | 2 kts | 53° |
| 2026-05-08 09:50 | 45.45812 | -73.75913 | 106 ft | 2 kts | 12° |
| 2026-05-08 09:50 | 45.45796 | -73.75913 | 103 ft | 2 kts | 334° |
| 2026-05-08 09:51 | 45.45795 | -73.75912 | 104 ft | 0 kts | 335° |
| 2026-05-08 09:52 | 45.45834 | -73.75932 | 104 ft | 11 kts | 347° |
| 2026-05-08 09:53 | 45.45906 | -73.75950 | 105 ft | 10 kts | 353° |
| 2026-05-08 09:53 | 45.45975 | -73.75955 | 105 ft | 11 kts | 358° |
| 2026-05-08 09:53 | 45.46049 | -73.75959 | 105 ft | 11 kts | 358° |
| 2026-05-08 09:53 | 45.46121 | -73.75916 | 104 ft | 11 kts | 62° |
| 2026-05-08 09:54 | 45.46128 | -73.75811 | 104 ft | 11 kts | 88° |
| 2026-05-08 09:54 | 45.46130 | -73.75716 | 105 ft | 9 kts | 87° |
| 2026-05-08 09:54 | 45.46133 | -73.75614 | 104 ft | 11 kts | 88° |
| 2026-05-08 09:54 | 45.46136 | -73.75496 | 105 ft | 15 kts | 88° |
| 2026-05-08 09:55 | 45.46140 | -73.75367 | 107 ft | 11 kts | 87° |
| 2026-05-08 09:55 | 45.46144 | -73.75234 | 110 ft | 22 kts | 88° |
| 2026-05-08 09:55 | 45.46149 | -73.75041 | 109 ft | 18 kts | 87° |
| 2026-05-08 09:55 | 45.46153 | -73.74876 | 111 ft | 15 kts | 88° |
| 2026-05-08 09:56 | 45.46158 | -73.74737 | 111 ft | 16 kts | 87° |
| 2026-05-08 09:56 | 45.46147 | -73.74572 | 109 ft | 16 kts | 115° |
| 2026-05-08 09:56 | 45.46073 | -73.74463 | 110 ft | 14 kts | 141° |
| 2026-05-08 09:56 | 45.45999 | -73.74376 | 108 ft | 14 kts | 138° |
| 2026-05-08 09:57 | 45.45841 | -73.74209 | 106 ft | 13 kts | 133° |
| 2026-05-08 09:57 | 45.45809 | -73.74096 | 104 ft | 13 kts | 73° |
| 2026-05-08 09:57 | 45.45864 | -73.74009 | 103 ft | 7 kts | 40° |
| 2026-05-08 09:58 | 45.45872 | -73.73999 | 101 ft | 8 kts | 39° |
| 2026-05-08 09:58 | 45.46106 | -73.73698 | 108 ft | 81 kts | 42° |
| 2026-05-08 09:58 | 45.46671 | -73.72956 | 113 ft | 138 kts | 43° |
| 2026-05-08 09:58 | 45.47485 | -73.71891 | 193 ft | 174 kts | 43° |
| 2026-05-08 09:59 | 45.48361 | -73.70722 | 842 ft | 170 kts | 44° |
| 2026-05-08 09:59 | 45.49213 | -73.69539 | 1472 ft | 171 kts | 43° |
| 2026-05-08 09:59 | 45.50065 | -73.68306 | 1874 ft | 183 kts | 43° |
| 2026-05-08 09:59 | 45.50988 | -73.66926 | 2187 ft | 198 kts | 43° |
| 2026-05-08 10:00 | 45.51928 | -73.65517 | 2724 ft | 200 kts | 43° |
| 2026-05-08 10:00 | 45.52893 | -73.64075 | 3243 ft | 204 kts | 43° |
| 2026-05-08 10:00 | 45.53897 | -73.62517 | 3501 ft | 222 kts | 52° |
| 2026-05-08 10:00 | 45.54456 | -73.60414 | 3920 ft | 236 kts | 88° |
| 2026-05-08 10:01 | 45.54103 | -73.58108 | 4394 ft | 245 kts | 125° |
| 2026-05-08 10:01 | 45.52875 | -73.56528 | 5159 ft | 238 kts | 151° |
| 2026-05-08 10:01 | 45.51423 | -73.55138 | 5306 ft | 269 kts | 143° |
| 2026-05-08 10:01 | 45.49979 | -73.53364 | 5921 ft | 277 kts | 140° |
| 2026-05-08 10:02 | 45.48557 | -73.51479 | 6658 ft | 281 kts | 139° |
| 2026-05-08 10:02 | 45.47117 | -73.49566 | 7383 ft | 285 kts | 139° |
| 2026-05-08 10:02 | 45.45641 | -73.47654 | 8118 ft | 288 kts | 140° |
| 2026-05-08 10:02 | 45.44135 | -73.45750 | 8847 ft | 291 kts | 141° |
| 2026-05-08 10:03 | 45.42598 | -73.43845 | 9577 ft | 295 kts | 141° |
| 2026-05-08 10:03 | 45.41034 | -73.41932 | 10218 ft | 300 kts | 141° |
| 2026-05-08 10:03 | 45.39389 | -73.39940 | 10406 ft | 321 kts | 141° |
| 2026-05-08 10:03 | 45.37625 | -73.37818 | 10547 ft | 343 kts | 141° |
| 2026-05-08 10:04 | 45.35766 | -73.35582 | 10954 ft | 354 kts | 141° |
| 2026-05-08 10:04 | 45.33876 | -73.33297 | 11546 ft | 359 kts | 141° |
| 2026-05-08 10:04 | 45.31961 | -73.30980 | 12163 ft | 364 kts | 142° |
| 2026-05-08 10:04 | 45.30019 | -73.28635 | 12786 ft | 368 kts | 142° |
| 2026-05-08 10:05 | 45.28049 | -73.26274 | 13389 ft | 373 kts | 144° |
| 2026-05-08 10:05 | 45.25888 | -73.24236 | 13947 ft | 374 kts | 155° |
| 2026-05-08 10:05 | 45.23498 | -73.22790 | 14515 ft | 373 kts | 166° |
| 2026-05-08 10:05 | 45.20972 | -73.21968 | 15089 ft | 373 kts | 175° |
| 2026-05-08 10:06 | 45.18400 | -73.21398 | 15663 ft | 376 kts | 175° |
| 2026-05-08 10:06 | 45.15807 | -73.20820 | 16232 ft | 379 kts | 175° |
| 2026-05-08 10:06 | 45.13192 | -73.20235 | 16798 ft | 382 kts | 174° |
| 2026-05-08 10:06 | 45.10559 | -73.19642 | 17368 ft | 385 kts | 174° |
| 2026-05-08 10:07 | 45.07907 | -73.19045 | 17925 ft | 388 kts | 174° |
| 2026-05-08 10:07 | 45.05233 | -73.18440 | 18425 ft | 391 kts | 174° |
| 2026-05-08 10:07 | 45.02559 | -73.17642 | 18888 ft | 396 kts | 166° |
| 2026-05-08 10:07 | 44.99970 | -73.16222 | 19366 ft | 402 kts | 156° |
| 2026-05-08 10:08 | 44.97487 | -73.14354 | 19820 ft | 406 kts | 154° |
| 2026-05-08 10:08 | 44.94994 | -73.12461 | 20279 ft | 408 kts | 154° |
| 2026-05-08 10:08 | 44.92484 | -73.10563 | 20752 ft | 410 kts | 155° |
| 2026-05-08 10:08 | 44.89957 | -73.08662 | 21215 ft | 413 kts | 155° |
| 2026-05-08 10:09 | 44.87414 | -73.06755 | 21670 ft | 415 kts | 155° |
| 2026-05-08 10:09 | 44.84856 | -73.04838 | 22119 ft | 418 kts | 155° |
| 2026-05-08 10:09 | 44.82279 | -73.02913 | 22551 ft | 420 kts | 155° |
| 2026-05-08 10:09 | 44.79690 | -73.00975 | 22977 ft | 423 kts | 155° |
| 2026-05-08 10:10 | 44.77085 | -72.99022 | 23400 ft | 425 kts | 154° |
| 2026-05-08 10:10 | 44.74466 | -72.97061 | 23754 ft | 428 kts | 155° |
| 2026-05-08 10:10 | 44.71867 | -72.95113 | 24101 ft | 430 kts | 155° |
| 2026-05-08 10:10 | 44.69185 | -72.93105 | 24461 ft | 432 kts | 155° |
| 2026-05-08 10:11 | 44.66562 | -72.91143 | 24794 ft | 434 kts | 155° |
| 2026-05-08 10:11 | 44.63887 | -72.89148 | 25132 ft | 436 kts | 155° |
| 2026-05-08 10:11 | 44.61198 | -72.87146 | 25455 ft | 439 kts | 155° |
| 2026-05-08 10:11 | 44.58497 | -72.85135 | 25782 ft | 441 kts | 156° |
| 2026-05-08 10:12 | 44.55781 | -72.83116 | 26118 ft | 443 kts | 156° |
| 2026-05-08 10:12 | 44.53050 | -72.81089 | 26453 ft | 445 kts | 156° |
| 2026-05-08 10:12 | 44.50307 | -72.79060 | 26745 ft | 447 kts | 156° |
| 2026-05-08 10:12 | 44.47520 | -72.77131 | 27041 ft | 446 kts | 162° |
| 2026-05-08 10:13 | 44.44593 | -72.75747 | 27337 ft | 443 kts | 171° |
| 2026-05-08 10:13 | 44.41586 | -72.74843 | 27614 ft | 443 kts | 173° |
| 2026-05-08 10:13 | 44.38561 | -72.73975 | 27914 ft | 445 kts | 173° |
| 2026-05-08 10:13 | 44.35522 | -72.73102 | 28223 ft | 447 kts | 174° |
| 2026-05-08 10:14 | 44.32473 | -72.72222 | 28514 ft | 448 kts | 174° |
| 2026-05-08 10:14 | 44.29414 | -72.71338 | 28774 ft | 450 kts | 174° |
| 2026-05-08 10:14 | 44.26336 | -72.70447 | 29030 ft | 452 kts | 174° |
| 2026-05-08 10:14 | 44.23250 | -72.69553 | 29290 ft | 454 kts | 174° |
| 2026-05-08 10:15 | 44.20151 | -72.68658 | 29556 ft | 456 kts | 174° |
| 2026-05-08 10:15 | 44.17040 | -72.67762 | 29802 ft | 458 kts | 174° |
| 2026-05-08 10:15 | 44.13917 | -72.66864 | 30070 ft | 458 kts | 175° |
| 2026-05-08 10:15 | 44.10799 | -72.65970 | 30385 ft | 457 kts | 175° |
| 2026-05-08 10:16 | 44.07688 | -72.65083 | 30669 ft | 456 kts | 175° |
| 2026-05-08 10:16 | 44.04578 | -72.64198 | 30925 ft | 456 kts | 175° |
| 2026-05-08 10:16 | 44.01468 | -72.63310 | 31206 ft | 456 kts | 175° |
| 2026-05-08 10:16 | 43.98362 | -72.62420 | 31489 ft | 456 kts | 175° |
| 2026-05-08 10:17 | 43.95257 | -72.61531 | 31769 ft | 456 kts | 175° |
| 2026-05-08 10:17 | 43.92151 | -72.60646 | 32036 ft | 456 kts | 176° |
| 2026-05-08 10:17 | 43.89047 | -72.59766 | 32291 ft | 455 kts | 176° |
| 2026-05-08 10:17 | 43.85943 | -72.58887 | 32545 ft | 455 kts | 176° |
| 2026-05-08 10:18 | 43.82844 | -72.58007 | 32804 ft | 455 kts | 176° |
| 2026-05-08 10:18 | 43.79744 | -72.57128 | 33067 ft | 454 kts | 176° |
| 2026-05-08 10:18 | 43.76650 | -72.56248 | 33315 ft | 454 kts | 176° |
| 2026-05-08 10:18 | 43.73600 | -72.55384 | 33585 ft | 453 kts | 176° |
| 2026-05-08 10:19 | 43.70510 | -72.54512 | 33841 ft | 453 kts | 176° |
| 2026-05-08 10:19 | 43.67423 | -72.53645 | 34024 ft | 453 kts | 176° |
| 2026-05-08 10:19 | 43.64337 | -72.52776 | 34231 ft | 452 kts | 177° |
| 2026-05-08 10:20 | 43.58169 | -72.51032 | 34605 ft | 452 kts | 177° |
| 2026-05-08 10:20 | 43.55083 | -72.50162 | 34799 ft | 453 kts | 177° |
| 2026-05-08 10:20 | 43.51999 | -72.49297 | 34865 ft | 452 kts | 177° |
| 2026-05-08 10:21 | 43.45864 | -72.47572 | 34902 ft | 449 kts | 177° |
| 2026-05-08 10:21 | 43.39744 | -72.45865 | 34904 ft | 448 kts | 178° |
| 2026-05-08 10:22 | 43.33629 | -72.44164 | 34902 ft | 448 kts | 178° |
| 2026-05-08 10:22 | 43.27516 | -72.42458 | 34905 ft | 448 kts | 178° |
| 2026-05-08 10:23 | 43.21406 | -72.40761 | 34904 ft | 448 kts | 178° |
| 2026-05-08 10:23 | 43.15296 | -72.39061 | 34895 ft | 448 kts | 178° |
| 2026-05-08 10:24 | 43.09190 | -72.37363 | 34904 ft | 448 kts | 179° |
| 2026-05-08 10:24 | 43.03087 | -72.35674 | 34892 ft | 447 kts | 179° |
| 2026-05-08 10:25 | 42.96994 | -72.33999 | 34895 ft | 447 kts | 179° |
| 2026-05-08 10:25 | 42.90901 | -72.32326 | 34883 ft | 446 kts | 179° |
| 2026-05-08 10:26 | 42.84857 | -72.30664 | 34881 ft | 446 kts | 180° |
| 2026-05-08 10:26 | 42.78773 | -72.29009 | 34873 ft | 444 kts | 181° |
| 2026-05-08 10:27 | 42.72702 | -72.27738 | 34884 ft | 439 kts | 184° |
| 2026-05-08 10:27 | 42.66645 | -72.26740 | 34877 ft | 438 kts | 185° |
| 2026-05-08 10:28 | 42.60596 | -72.25717 | 34891 ft | 439 kts | 184° |
| 2026-05-08 10:28 | 42.54539 | -72.24621 | 34889 ft | 439 kts | 184° |
| 2026-05-08 10:29 | 42.48489 | -72.23496 | 34893 ft | 439 kts | 184° |
| 2026-05-08 10:29 | 42.42447 | -72.22372 | 34885 ft | 438 kts | 185° |
| 2026-05-08 10:30 | 42.37426 | -72.21450 | 34890 ft | 438 kts | 185° |
| 2026-05-08 10:30 | 42.31384 | -72.20350 | 34879 ft | 438 kts | 185° |
| 2026-05-08 10:31 | 42.25351 | -72.19257 | 34886 ft | 437 kts | 185° |
| 2026-05-08 10:31 | 42.19323 | -72.18165 | 34884 ft | 437 kts | 185° |
| 2026-05-08 10:32 | 42.13297 | -72.17076 | 34893 ft | 437 kts | 185° |
| 2026-05-08 10:32 | 42.07276 | -72.15988 | 34890 ft | 436 kts | 186° |
| 2026-05-08 10:33 | 42.01260 | -72.14906 | 34912 ft | 436 kts | 186° |
| 2026-05-08 10:33 | 41.95251 | -72.13819 | 34908 ft | 436 kts | 186° |
| 2026-05-08 10:34 | 41.89241 | -72.12731 | 34921 ft | 435 kts | 186° |
| 2026-05-08 10:34 | 41.83240 | -72.11648 | 34909 ft | 435 kts | 186° |
| 2026-05-08 10:35 | 41.77244 | -72.10576 | 34910 ft | 435 kts | 186° |
| 2026-05-08 10:35 | 41.71251 | -72.09510 | 34895 ft | 434 kts | 186° |
| 2026-05-08 10:36 | 41.65262 | -72.08439 | 34899 ft | 434 kts | 186° |
| 2026-05-08 10:36 | 41.59276 | -72.07374 | 34889 ft | 434 kts | 186° |
| 2026-05-08 10:37 | 41.53333 | -72.06313 | 34894 ft | 434 kts | 187° |
| 2026-05-08 10:37 | 41.47351 | -72.05251 | 34886 ft | 433 kts | 187° |
| 2026-05-08 10:38 | 41.41369 | -72.04198 | 34896 ft | 434 kts | 187° |
| 2026-05-08 10:38 | 41.35383 | -72.03142 | 34891 ft | 434 kts | 187° |
| 2026-05-08 10:39 | 41.29394 | -72.02080 | 34893 ft | 434 kts | 187° |
| 2026-05-08 10:39 | 41.23407 | -72.01023 | 34901 ft | 433 kts | 187° |
| 2026-05-08 10:40 | 41.17425 | -71.99974 | 34917 ft | 434 kts | 187° |
| 2026-05-08 10:40 | 41.11438 | -71.98926 | 34925 ft | 434 kts | 187° |
| 2026-05-08 10:41 | 41.05450 | -71.97871 | 34927 ft | 434 kts | 187° |
| 2026-05-08 10:41 | 41.02441 | -71.97088 | 34925 ft | 449 kts | 179° |
| 2026-05-08 10:41 | 40.99423 | -71.95849 | 34912 ft | 455 kts | 177° |
| 2026-05-08 10:42 | 40.93394 | -71.93298 | 34915 ft | 455 kts | 177° |
| 2026-05-08 10:42 | 40.87363 | -71.90752 | 34914 ft | 455 kts | 177° |
| 2026-05-08 10:43 | 40.81329 | -71.88217 | 34912 ft | 455 kts | 177° |
| 2026-05-08 10:43 | 40.75291 | -71.85689 | 34903 ft | 455 kts | 178° |
| 2026-05-08 10:44 | 40.69252 | -71.83180 | 34907 ft | 455 kts | 178° |
| 2026-05-08 10:44 | 40.63215 | -71.80664 | 34922 ft | 455 kts | 178° |
| 2026-05-08 10:45 | 40.57176 | -71.78139 | 34925 ft | 455 kts | 178° |
| 2026-05-08 10:45 | 40.51139 | -71.75624 | 34914 ft | 455 kts | 178° |
| 2026-05-08 10:46 | 40.45102 | -71.73121 | 34915 ft | 455 kts | 178° |
| 2026-05-08 10:46 | 40.39067 | -71.70624 | 34929 ft | 455 kts | 178° |
| 2026-05-08 10:47 | 40.33060 | -71.68144 | 34929 ft | 456 kts | 178° |
| 2026-05-08 10:47 | 40.27006 | -71.65646 | 34907 ft | 456 kts | 178° |
| 2026-05-08 10:48 | 40.20946 | -71.63151 | 34917 ft | 457 kts | 178° |
| 2026-05-08 10:48 | 40.14881 | -71.60663 | 34941 ft | 457 kts | 178° |
| 2026-05-08 10:49 | 40.08746 | -71.58157 | 34949 ft | 460 kts | 178° |
| 2026-05-08 10:49 | 40.02684 | -71.55670 | 34934 ft | 460 kts | 178° |
| 2026-05-08 10:50 | 39.96585 | -71.53168 | 34935 ft | 460 kts | 178° |
| 2026-05-08 10:50 | 39.90477 | -71.50678 | 34922 ft | 460 kts | 178° |
| 2026-05-08 10:51 | 39.84364 | -71.48194 | 34926 ft | 461 kts | 177° |
| 2026-05-08 10:51 | 39.78242 | -71.45708 | 34942 ft | 461 kts | 177° |
| 2026-05-08 10:52 | 39.72101 | -71.43218 | 34943 ft | 463 kts | 177° |
| 2026-05-08 10:52 | 39.65948 | -71.40723 | 34931 ft | 464 kts | 177° |
| 2026-05-08 10:53 | 39.59785 | -71.38238 | 34938 ft | 464 kts | 177° |
| 2026-05-08 10:53 | 39.53621 | -71.35755 | 34929 ft | 464 kts | 177° |
| 2026-05-08 10:54 | 39.47446 | -71.33264 | 34933 ft | 465 kts | 177° |
| 2026-05-08 10:54 | 39.41265 | -71.30737 | 34926 ft | 469 kts | 175° |
| 2026-05-08 10:55 | 39.35153 | -71.27694 | 34932 ft | 478 kts | 172° |
| 2026-05-08 10:55 | 39.29024 | -71.24308 | 34951 ft | 480 kts | 171° |
| 2026-05-08 10:56 | 39.22862 | -71.20970 | 34954 ft | 480 kts | 172° |
| 2026-05-08 10:56 | 39.16680 | -71.17754 | 34934 ft | 479 kts | 172° |
| 2026-05-08 10:57 | 39.10491 | -71.14583 | 34938 ft | 479 kts | 172° |
| 2026-05-08 10:57 | 39.01202 | -71.09795 | 34933 ft | 480 kts | 172° |
| 2026-05-08 10:58 | 38.95002 | -71.06597 | 34940 ft | 480 kts | 172° |
| 2026-05-08 10:58 | 38.88800 | -71.03402 | 34936 ft | 480 kts | 172° |
| 2026-05-08 10:59 | 38.82593 | -71.00207 | 34936 ft | 481 kts | 172° |
| 2026-05-08 10:59 | 38.76381 | -70.97026 | 34935 ft | 481 kts | 172° |
| 2026-05-08 11:00 | 38.70159 | -70.93856 | 34939 ft | 482 kts | 172° |
| 2026-05-08 11:00 | 38.63974 | -70.90697 | 34933 ft | 482 kts | 172° |
| 2026-05-08 11:01 | 38.57737 | -70.87515 | 34930 ft | 483 kts | 172° |
| 2026-05-08 11:01 | 38.51487 | -70.84332 | 34952 ft | 485 kts | 172° |
| 2026-05-08 11:02 | 38.42085 | -70.79548 | 34949 ft | 485 kts | 171° |
| 2026-05-08 11:03 | 38.35808 | -70.76372 | 34955 ft | 485 kts | 171° |
| 2026-05-08 11:03 | 38.29524 | -70.73201 | 34941 ft | 486 kts | 171° |
| 2026-05-08 11:04 | 38.23236 | -70.70014 | 34943 ft | 487 kts | 171° |
| 2026-05-08 11:04 | 38.16945 | -70.66832 | 34948 ft | 486 kts | 171° |
| 2026-05-08 11:05 | 38.10644 | -70.63680 | 34974 ft | 487 kts | 171° |
| 2026-05-08 11:05 | 38.04341 | -70.60527 | 34970 ft | 487 kts | 170° |
| 2026-05-08 11:06 | 37.98052 | -70.57302 | 34972 ft | 490 kts | 167° |
| 2026-05-08 11:06 | 37.91856 | -70.53533 | 34974 ft | 497 kts | 163° |
| 2026-05-08 11:07 | 37.85730 | -70.49468 | 34975 ft | 497 kts | 162° |
| 2026-05-08 11:07 | 37.79580 | -70.45474 | 34981 ft | 496 kts | 163° |
| 2026-05-08 11:08 | 37.73397 | -70.41617 | 34974 ft | 495 kts | 164° |
| 2026-05-08 11:08 | 37.67238 | -70.37827 | 34974 ft | 496 kts | 164° |
| 2026-05-08 11:09 | 37.61044 | -70.33983 | 34963 ft | 497 kts | 163° |
| 2026-05-08 11:09 | 37.54844 | -70.30105 | 34962 ft | 498 kts | 163° |
| 2026-05-08 11:10 | 37.48633 | -70.26234 | 34952 ft | 498 kts | 163° |
| 2026-05-08 11:10 | 37.42405 | -70.22378 | 34960 ft | 499 kts | 163° |
| 2026-05-08 11:11 | 37.36168 | -70.18531 | 34952 ft | 499 kts | 163° |
| 2026-05-08 11:11 | 37.29930 | -70.14677 | 34958 ft | 500 kts | 163° |
| 2026-05-08 11:12 | 37.23687 | -70.10816 | 34944 ft | 500 kts | 164° |
| 2026-05-08 11:12 | 37.17437 | -70.06967 | 34952 ft | 500 kts | 164° |
| 2026-05-08 11:13 | 37.11182 | -70.03132 | 34949 ft | 500 kts | 163° |
| 2026-05-08 11:13 | 37.04926 | -69.99299 | 34960 ft | 500 kts | 163° |
| 2026-05-08 11:14 | 36.98676 | -69.95459 | 34963 ft | 500 kts | 163° |
| 2026-05-08 11:14 | 36.92430 | -69.91637 | 34965 ft | 500 kts | 163° |
| 2026-05-08 11:14 | 36.89316 | -69.89739 | 35289 ft | 495 kts | 168° |
| 2026-05-08 11:15 | 36.86237 | -69.87859 | 35067 ft | 491 kts | 168° |
| 2026-05-08 11:15 | 36.83176 | -69.85991 | 34932 ft | 488 kts | 168° |
| 2026-05-08 11:15 | 36.80137 | -69.84138 | 34915 ft | 485 kts | 168° |
| 2026-05-08 11:16 | 36.74057 | -69.80464 | 34904 ft | 486 kts | 168° |
| 2026-05-08 11:16 | 36.67956 | -69.76782 | 34899 ft | 488 kts | 168° |
| 2026-05-08 11:17 | 36.61838 | -69.73081 | 34896 ft | 490 kts | 168° |
| 2026-05-08 11:17 | 36.55692 | -69.69359 | 34908 ft | 492 kts | 168° |
| 2026-05-08 11:18 | 36.49578 | -69.65652 | 34907 ft | 492 kts | 168° |
| 2026-05-08 11:18 | 36.43414 | -69.61936 | 34903 ft | 493 kts | 168° |
| 2026-05-08 11:19 | 36.37239 | -69.58231 | 34901 ft | 493 kts | 168° |
| 2026-05-08 11:19 | 36.31062 | -69.54518 | 34899 ft | 494 kts | 168° |
| 2026-05-08 11:20 | 36.24878 | -69.50812 | 34897 ft | 494 kts | 168° |
| 2026-05-08 11:20 | 36.19734 | -69.47740 | 34897 ft | 494 kts | 168° |
| 2026-05-08 11:21 | 36.13701 | -69.43357 | 34892 ft | 518 kts | 155° |
| 2026-05-08 11:21 | 36.07992 | -69.37877 | 34890 ft | 520 kts | 154° |
| 2026-05-08 11:22 | 36.02290 | -69.32391 | 34887 ft | 519 kts | 154° |
| 2026-05-08 11:22 | 35.96575 | -69.26932 | 34896 ft | 519 kts | 154° |
| 2026-05-08 11:23 | 35.90860 | -69.21491 | 34906 ft | 519 kts | 154° |
| 2026-05-08 11:23 | 35.85146 | -69.16070 | 34909 ft | 518 kts | 154° |
| 2026-05-08 11:24 | 35.79441 | -69.10661 | 34912 ft | 517 kts | 154° |
| 2026-05-08 11:24 | 35.73747 | -69.05261 | 34914 ft | 516 kts | 154° |
| 2026-05-08 11:25 | 35.68060 | -68.99881 | 34908 ft | 515 kts | 154° |
| 2026-05-08 11:25 | 35.62375 | -68.94522 | 34906 ft | 515 kts | 153° |
| 2026-05-08 11:26 | 35.56692 | -68.89183 | 34911 ft | 514 kts | 153° |
| 2026-05-08 11:26 | 35.51017 | -68.83853 | 34902 ft | 513 kts | 153° |
| 2026-05-08 11:27 | 35.45353 | -68.78531 | 34898 ft | 513 kts | 153° |
| 2026-05-08 11:27 | 35.39688 | -68.73218 | 34893 ft | 512 kts | 152° |
| 2026-05-08 11:28 | 35.34026 | -68.67923 | 34897 ft | 512 kts | 152° |
| 2026-05-08 11:28 | 35.28409 | -68.62680 | 34898 ft | 511 kts | 152° |
| 2026-05-08 11:29 | 35.22762 | -68.57416 | 34899 ft | 510 kts | 152° |
| 2026-05-08 11:29 | 35.17124 | -68.52173 | 34894 ft | 508 kts | 152° |
| 2026-05-08 11:30 | 35.11497 | -68.46956 | 34909 ft | 507 kts | 152° |
| 2026-05-08 11:30 | 35.05881 | -68.41755 | 34907 ft | 506 kts | 152° |
| 2026-05-08 11:31 | 35.00282 | -68.36571 | 34905 ft | 505 kts | 152° |
| 2026-05-08 11:31 | 34.94688 | -68.31404 | 34898 ft | 504 kts | 152° |
| 2026-05-08 11:32 | 34.89101 | -68.26257 | 34895 ft | 503 kts | 152° |
| 2026-05-08 11:32 | 34.83515 | -68.21129 | 34892 ft | 503 kts | 152° |
| 2026-05-08 11:33 | 34.77936 | -68.16001 | 34891 ft | 502 kts | 152° |
| 2026-05-08 11:33 | 34.72368 | -68.10882 | 34892 ft | 502 kts | 152° |
| 2026-05-08 11:34 | 34.66796 | -68.05786 | 34895 ft | 501 kts | 152° |
| 2026-05-08 11:34 | 34.61222 | -68.00694 | 34899 ft | 501 kts | 152° |
| 2026-05-08 11:35 | 34.55659 | -67.95625 | 34893 ft | 500 kts | 152° |
| 2026-05-08 11:35 | 34.50103 | -67.90563 | 34893 ft | 499 kts | 152° |
| 2026-05-08 11:36 | 34.44547 | -67.85511 | 34892 ft | 499 kts | 152° |
| 2026-05-08 11:36 | 34.38991 | -67.80471 | 34907 ft | 499 kts | 151° |
| 2026-05-08 11:37 | 34.33443 | -67.75437 | 34900 ft | 498 kts | 151° |
| 2026-05-08 11:37 | 34.27897 | -67.70420 | 34896 ft | 497 kts | 151° |
| 2026-05-08 11:38 | 34.22353 | -67.65424 | 34899 ft | 497 kts | 151° |
| 2026-05-08 11:38 | 34.16766 | -67.60526 | 34896 ft | 491 kts | 157° |
| 2026-05-08 11:38 | 34.13781 | -67.58617 | 34893 ft | 480 kts | 166° |
| 2026-05-08 11:39 | 34.10680 | -67.57247 | 34898 ft | 470 kts | 174° |
| 2026-05-08 11:39 | 34.04373 | -67.55728 | 34897 ft | 461 kts | 180° |
| 2026-05-08 11:40 | 33.98055 | -67.54379 | 34902 ft | 461 kts | 180° |
| 2026-05-08 11:40 | 33.91730 | -67.53009 | 34901 ft | 462 kts | 180° |
| 2026-05-08 11:41 | 33.85402 | -67.51651 | 34909 ft | 462 kts | 180° |
| 2026-05-08 11:41 | 33.79067 | -67.50301 | 34915 ft | 462 kts | 179° |
| 2026-05-08 11:42 | 33.72730 | -67.48943 | 34916 ft | 463 kts | 179° |
| 2026-05-08 11:42 | 33.66431 | -67.47584 | 34919 ft | 463 kts | 179° |
| 2026-05-08 11:43 | 33.60090 | -67.46236 | 34919 ft | 463 kts | 179° |
| 2026-05-08 11:43 | 33.53742 | -67.44893 | 34922 ft | 463 kts | 179° |
| 2026-05-08 11:44 | 33.47396 | -67.43542 | 34927 ft | 463 kts | 179° |
| 2026-05-08 11:44 | 33.41046 | -67.42200 | 34928 ft | 463 kts | 179° |
| 2026-05-08 11:45 | 33.34698 | -67.40853 | 34930 ft | 463 kts | 179° |
| 2026-05-08 11:45 | 33.28350 | -67.39509 | 34932 ft | 463 kts | 179° |
| 2026-05-08 11:46 | 33.21995 | -67.38172 | 34935 ft | 464 kts | 179° |
| 2026-05-08 11:46 | 33.15632 | -67.36834 | 34942 ft | 464 kts | 179° |
| 2026-05-08 11:47 | 33.09267 | -67.35492 | 34945 ft | 465 kts | 179° |
| 2026-05-08 11:47 | 33.02899 | -67.34146 | 34963 ft | 465 kts | 179° |
| 2026-05-08 11:48 | 32.96528 | -67.32810 | 34953 ft | 465 kts | 179° |
| 2026-05-08 11:48 | 32.90158 | -67.31482 | 34953 ft | 465 kts | 179° |
| 2026-05-08 11:49 | 32.83782 | -67.30152 | 34953 ft | 465 kts | 179° |
| 2026-05-08 11:49 | 32.77403 | -67.28821 | 34950 ft | 466 kts | 179° |
| 2026-05-08 11:50 | 32.71016 | -67.27496 | 34941 ft | 466 kts | 179° |
| 2026-05-08 11:50 | 32.64622 | -67.26158 | 34946 ft | 467 kts | 179° |
| 2026-05-08 11:51 | 32.58215 | -67.24823 | 34951 ft | 468 kts | 179° |
| 2026-05-08 11:51 | 32.51796 | -67.23483 | 34955 ft | 469 kts | 179° |
| 2026-05-08 11:52 | 32.45410 | -67.22156 | 34956 ft | 469 kts | 179° |
| 2026-05-08 11:52 | 32.38967 | -67.20828 | 34960 ft | 470 kts | 179° |
| 2026-05-08 11:53 | 32.32516 | -67.19500 | 34960 ft | 471 kts | 179° |
| 2026-05-08 11:53 | 32.26057 | -67.18165 | 34963 ft | 472 kts | 179° |
| 2026-05-08 11:54 | 32.19589 | -67.16827 | 34966 ft | 472 kts | 179° |
| 2026-05-08 11:54 | 32.13118 | -67.15501 | 34972 ft | 472 kts | 179° |
| 2026-05-08 11:55 | 32.06647 | -67.14177 | 34985 ft | 472 kts | 179° |
| 2026-05-08 11:55 | 32.00172 | -67.12840 | 34989 ft | 472 kts | 179° |
| 2026-05-08 11:56 | 31.93701 | -67.11507 | 34990 ft | 472 kts | 179° |
| 2026-05-08 11:56 | 31.87226 | -67.10184 | 34992 ft | 472 kts | 179° |
| 2026-05-08 11:57 | 31.80749 | -67.08855 | 34996 ft | 472 kts | 179° |
| 2026-05-08 11:57 | 31.74276 | -67.07524 | 35008 ft | 472 kts | 179° |
| 2026-05-08 11:58 | 31.67855 | -67.06216 | 35010 ft | 471 kts | 178° |
| 2026-05-08 11:58 | 31.61402 | -67.04909 | 35012 ft | 470 kts | 178° |
| 2026-05-08 11:59 | 31.51739 | -67.02951 | 35018 ft | 470 kts | 178° |
| 2026-05-08 11:59 | 31.45303 | -67.01643 | 35022 ft | 469 kts | 178° |
| 2026-05-08 12:00 | 31.38866 | -67.00344 | 35020 ft | 469 kts | 178° |
| 2026-05-08 12:00 | 31.32436 | -66.99050 | 35018 ft | 469 kts | 178° |
| 2026-05-08 12:01 | 31.26004 | -66.97745 | 35020 ft | 469 kts | 177° |
| 2026-05-08 12:01 | 31.19574 | -66.96435 | 35021 ft | 469 kts | 177° |
| 2026-05-08 12:02 | 31.13141 | -66.95146 | 35018 ft | 469 kts | 177° |
| 2026-05-08 12:02 | 31.06711 | -66.93858 | 35018 ft | 469 kts | 177° |
| 2026-05-08 12:03 | 31.00277 | -66.92563 | 35014 ft | 469 kts | 177° |
| 2026-05-08 12:03 | 30.93838 | -66.91271 | 35020 ft | 470 kts | 176° |
| 2026-05-08 12:04 | 30.87394 | -66.89975 | 35021 ft | 470 kts | 176° |
| 2026-05-08 12:04 | 30.80943 | -66.88687 | 35016 ft | 471 kts | 176° |
| 2026-05-08 12:05 | 30.74482 | -66.87397 | 35015 ft | 472 kts | 176° |
| 2026-05-08 12:05 | 30.68009 | -66.86096 | 35023 ft | 472 kts | 176° |
| 2026-05-08 12:06 | 30.61523 | -66.84805 | 35022 ft | 473 kts | 176° |
| 2026-05-08 12:06 | 30.55026 | -66.83521 | 35020 ft | 474 kts | 176° |
| 2026-05-08 12:07 | 30.48526 | -66.82233 | 35020 ft | 474 kts | 176° |
| 2026-05-08 12:07 | 30.43115 | -66.81164 | 35023 ft | 475 kts | 176° |
| 2026-05-08 12:08 | 30.36594 | -66.79871 | 35021 ft | 476 kts | 176° |
| 2026-05-08 12:08 | 30.29006 | -66.78361 | 35029 ft | 476 kts | 176° |
| 2026-05-08 12:09 | 30.23526 | -66.77278 | 35031 ft | 477 kts | 176° |
| 2026-05-08 12:09 | 30.16984 | -66.75980 | 35038 ft | 477 kts | 176° |
| 2026-05-08 12:10 | 30.10438 | -66.74693 | 35038 ft | 477 kts | 176° |
| 2026-05-08 12:10 | 30.03892 | -66.73412 | 35043 ft | 477 kts | 176° |
| 2026-05-08 12:11 | 29.97350 | -66.72123 | 35042 ft | 477 kts | 176° |
| 2026-05-08 12:11 | 29.90808 | -66.70835 | 35040 ft | 477 kts | 176° |
| 2026-05-08 12:12 | 29.84259 | -66.69564 | 35046 ft | 477 kts | 176° |
| 2026-05-08 12:12 | 29.77712 | -66.68297 | 35045 ft | 477 kts | 176° |
| 2026-05-08 12:13 | 29.71167 | -66.67043 | 35044 ft | 477 kts | 176° |
| 2026-05-08 12:13 | 29.64671 | -66.65787 | 35044 ft | 476 kts | 176° |
| 2026-05-08 12:14 | 29.58134 | -66.64525 | 35046 ft | 476 kts | 176° |
| 2026-05-08 12:14 | 29.51594 | -66.63267 | 35051 ft | 477 kts | 176° |
| 2026-05-08 12:15 | 29.45049 | -66.62006 | 35053 ft | 477 kts | 175° |
| 2026-05-08 12:15 | 29.38505 | -66.60746 | 35053 ft | 477 kts | 176° |
| 2026-05-08 12:16 | 29.31959 | -66.59493 | 35055 ft | 477 kts | 175° |
| 2026-05-08 12:16 | 29.25410 | -66.58235 | 35061 ft | 477 kts | 175° |
| 2026-05-08 12:17 | 29.18861 | -66.56975 | 35060 ft | 477 kts | 175° |
| 2026-05-08 12:17 | 29.12314 | -66.55719 | 35059 ft | 477 kts | 175° |
| 2026-05-08 12:18 | 29.05769 | -66.54480 | 35056 ft | 477 kts | 175° |
| 2026-05-08 12:18 | 28.99225 | -66.53235 | 35055 ft | 477 kts | 175° |
| 2026-05-08 12:19 | 28.92681 | -66.51986 | 35049 ft | 477 kts | 175° |
| 2026-05-08 12:19 | 28.86137 | -66.50741 | 35057 ft | 477 kts | 175° |
| 2026-05-08 12:20 | 28.79587 | -66.49498 | 35051 ft | 477 kts | 175° |
| 2026-05-08 12:20 | 28.73035 | -66.48252 | 35061 ft | 478 kts | 175° |
| 2026-05-08 12:21 | 28.66475 | -66.47014 | 35062 ft | 478 kts | 175° |
| 2026-05-08 12:21 | 28.59913 | -66.45770 | 35073 ft | 478 kts | 175° |
| 2026-05-08 12:22 | 28.53348 | -66.44532 | 35074 ft | 478 kts | 175° |
| 2026-05-08 12:22 | 28.46785 | -66.43294 | 35072 ft | 478 kts | 175° |
| 2026-05-08 12:23 | 28.40224 | -66.42060 | 35072 ft | 478 kts | 175° |
| 2026-05-08 12:23 | 28.33704 | -66.40825 | 35065 ft | 478 kts | 175° |
| 2026-05-08 12:24 | 28.27142 | -66.39589 | 35065 ft | 478 kts | 175° |
| 2026-05-08 12:24 | 28.20570 | -66.38364 | 35069 ft | 479 kts | 175° |
| 2026-05-08 12:25 | 28.13993 | -66.37130 | 35072 ft | 479 kts | 174° |
| 2026-05-08 12:25 | 28.07416 | -66.35890 | 35071 ft | 479 kts | 174° |
| 2026-05-08 12:26 | 28.00840 | -66.34659 | 35072 ft | 479 kts | 174° |
| 2026-05-08 12:26 | 27.94257 | -66.33436 | 35073 ft | 479 kts | 174° |
| 2026-05-08 12:27 | 27.87672 | -66.32212 | 35076 ft | 480 kts | 174° |
| 2026-05-08 12:27 | 27.81087 | -66.30985 | 35081 ft | 480 kts | 174° |
| 2026-05-08 12:28 | 27.74500 | -66.29755 | 35084 ft | 480 kts | 174° |
| 2026-05-08 12:28 | 27.67919 | -66.28528 | 35094 ft | 479 kts | 174° |
| 2026-05-08 12:29 | 27.61336 | -66.27305 | 35095 ft | 479 kts | 174° |
| 2026-05-08 12:29 | 27.54757 | -66.26079 | 35100 ft | 479 kts | 174° |
| 2026-05-08 12:30 | 27.48179 | -66.24857 | 35101 ft | 479 kts | 174° |
| 2026-05-08 12:30 | 27.41607 | -66.23651 | 35103 ft | 478 kts | 173° |
| 2026-05-08 12:31 | 27.35042 | -66.22443 | 35104 ft | 478 kts | 173° |
| 2026-05-08 12:31 | 27.28481 | -66.21233 | 35107 ft | 477 kts | 173° |
| 2026-05-08 12:32 | 27.21931 | -66.20027 | 35106 ft | 477 kts | 173° |
| 2026-05-08 12:32 | 27.15385 | -66.18814 | 35105 ft | 476 kts | 173° |
| 2026-05-08 12:33 | 27.08850 | -66.17609 | 35104 ft | 476 kts | 173° |
| 2026-05-08 12:33 | 27.02315 | -66.16419 | 35104 ft | 475 kts | 173° |
| 2026-05-08 12:34 | 26.95791 | -66.15224 | 35105 ft | 475 kts | 173° |
| 2026-05-08 12:34 | 26.89314 | -66.14032 | 35102 ft | 475 kts | 173° |
| 2026-05-08 12:35 | 26.82803 | -66.12834 | 35102 ft | 474 kts | 173° |
| 2026-05-08 12:35 | 26.76293 | -66.11645 | 35103 ft | 474 kts | 173° |
| 2026-05-08 12:36 | 26.69791 | -66.10463 | 35100 ft | 473 kts | 173° |
| 2026-05-08 12:36 | 26.63292 | -66.09274 | 35096 ft | 473 kts | 173° |
| 2026-05-08 12:37 | 26.56797 | -66.08094 | 35098 ft | 473 kts | 173° |
| 2026-05-08 12:37 | 26.50303 | -66.06914 | 35099 ft | 473 kts | 173° |
| 2026-05-08 12:38 | 26.43806 | -66.05735 | 35103 ft | 473 kts | 173° |
| 2026-05-08 12:38 | 26.37309 | -66.04552 | 35101 ft | 473 kts | 173° |
| 2026-05-08 12:39 | 26.30812 | -66.03364 | 35105 ft | 473 kts | 173° |
| 2026-05-08 12:39 | 26.24316 | -66.02189 | 35110 ft | 473 kts | 173° |
| 2026-05-08 12:40 | 26.17823 | -66.01021 | 35109 ft | 472 kts | 173° |
| 2026-05-08 12:40 | 26.11340 | -65.99848 | 35106 ft | 472 kts | 173° |
| 2026-05-08 12:41 | 26.04856 | -65.98677 | 35105 ft | 472 kts | 173° |
| 2026-05-08 12:41 | 25.98371 | -65.97511 | 35108 ft | 472 kts | 173° |
| 2026-05-08 12:42 | 25.91893 | -65.96347 | 35103 ft | 472 kts | 173° |
| 2026-05-08 12:42 | 25.85415 | -65.95181 | 35101 ft | 471 kts | 173° |
| 2026-05-08 12:43 | 25.78941 | -65.94011 | 35103 ft | 472 kts | 173° |
| 2026-05-08 12:43 | 25.72459 | -65.92844 | 35107 ft | 472 kts | 173° |
| 2026-05-08 12:44 | 25.65978 | -65.91676 | 35109 ft | 472 kts | 173° |
| 2026-05-08 12:44 | 25.59493 | -65.90519 | 35107 ft | 472 kts | 173° |
| 2026-05-08 12:45 | 25.53012 | -65.89364 | 35108 ft | 472 kts | 173° |
| 2026-05-08 12:45 | 25.46536 | -65.88212 | 35107 ft | 471 kts | 173° |
| 2026-05-08 12:46 | 25.40103 | -65.87053 | 35103 ft | 471 kts | 173° |
| 2026-05-08 12:46 | 25.33627 | -65.85894 | 35099 ft | 471 kts | 173° |
| 2026-05-08 12:47 | 25.27151 | -65.84742 | 35098 ft | 471 kts | 173° |
| 2026-05-08 12:47 | 25.20674 | -65.83592 | 35097 ft | 471 kts | 173° |
| 2026-05-08 12:48 | 25.14195 | -65.82443 | 35095 ft | 472 kts | 173° |
| 2026-05-08 12:48 | 25.07714 | -65.81300 | 35093 ft | 472 kts | 173° |
| 2026-05-08 12:49 | 25.01231 | -65.80142 | 35094 ft | 472 kts | 173° |
| 2026-05-08 12:49 | 24.94743 | -65.78988 | 35094 ft | 472 kts | 173° |
| 2026-05-08 12:50 | 24.88250 | -65.77839 | 35095 ft | 473 kts | 173° |
| 2026-05-08 12:50 | 24.81754 | -65.76695 | 35093 ft | 473 kts | 173° |
| 2026-05-08 12:51 | 24.71996 | -65.74973 | 35098 ft | 474 kts | 173° |
| 2026-05-08 12:52 | 24.65487 | -65.73823 | 35100 ft | 474 kts | 173° |
| 2026-05-08 12:52 | 24.55760 | -65.72105 | 35100 ft | 474 kts | 172° |
| 2026-05-08 12:53 | 24.49245 | -65.70964 | 35098 ft | 474 kts | 172° |
| 2026-05-08 12:53 | 24.42726 | -65.69813 | 35098 ft | 474 kts | 172° |
| 2026-05-08 12:54 | 24.36205 | -65.68662 | 35096 ft | 475 kts | 172° |
| 2026-05-08 12:54 | 24.29681 | -65.67521 | 35094 ft | 475 kts | 172° |
| 2026-05-08 12:55 | 24.23151 | -65.66386 | 35094 ft | 475 kts | 172° |
| 2026-05-08 12:55 | 24.16618 | -65.65250 | 35090 ft | 475 kts | 172° |
| 2026-05-08 12:56 | 24.11186 | -65.64300 | 35090 ft | 475 kts | 172° |
| 2026-05-08 12:56 | 24.04653 | -65.63151 | 35093 ft | 476 kts | 172° |
| 2026-05-08 12:57 | 23.98118 | -65.62009 | 35092 ft | 476 kts | 172° |
| 2026-05-08 12:57 | 23.91578 | -65.60868 | 35088 ft | 476 kts | 172° |
| 2026-05-08 12:58 | 23.85036 | -65.59728 | 35092 ft | 476 kts | 172° |
| 2026-05-08 12:58 | 23.78491 | -65.58592 | 35091 ft | 476 kts | 172° |
| 2026-05-08 12:59 | 23.71943 | -65.57454 | 35094 ft | 477 kts | 172° |
| 2026-05-08 12:59 | 23.65388 | -65.56312 | 35092 ft | 477 kts | 172° |
| 2026-05-08 13:00 | 23.58830 | -65.55184 | 35090 ft | 477 kts | 172° |
| 2026-05-08 13:00 | 23.52266 | -65.54046 | 35096 ft | 478 kts | 172° |
| 2026-05-08 13:01 | 23.45788 | -65.52443 | 35097 ft | 478 kts | 165° |
| 2026-05-08 13:01 | 23.39356 | -65.50569 | 35099 ft | 478 kts | 165° |
| 2026-05-08 13:02 | 23.32919 | -65.48714 | 35101 ft | 479 kts | 165° |
| 2026-05-08 13:02 | 23.26476 | -65.46858 | 35100 ft | 479 kts | 165° |
| 2026-05-08 13:03 | 23.20031 | -65.45007 | 35101 ft | 479 kts | 165° |
| 2026-05-08 13:03 | 23.13582 | -65.43149 | 35108 ft | 480 kts | 165° |
| 2026-05-08 13:04 | 23.07129 | -65.41290 | 35106 ft | 480 kts | 165° |
| 2026-05-08 13:04 | 23.00723 | -65.39446 | 35097 ft | 479 kts | 165° |
| 2026-05-08 13:05 | 22.94273 | -65.37596 | 35097 ft | 479 kts | 165° |
| 2026-05-08 13:05 | 22.87823 | -65.35736 | 35098 ft | 479 kts | 165° |
| 2026-05-08 13:06 | 22.81372 | -65.33887 | 35095 ft | 480 kts | 165° |
| 2026-05-08 13:06 | 22.74922 | -65.32046 | 35096 ft | 480 kts | 165° |
| 2026-05-08 13:07 | 22.68466 | -65.30203 | 35093 ft | 480 kts | 165° |
| 2026-05-08 13:07 | 22.62011 | -65.28356 | 35091 ft | 480 kts | 165° |
| 2026-05-08 13:08 | 22.55551 | -65.26516 | 35092 ft | 480 kts | 165° |
| 2026-05-08 13:08 | 22.49093 | -65.24675 | 35091 ft | 480 kts | 165° |
| 2026-05-08 13:09 | 22.42633 | -65.22835 | 35088 ft | 480 kts | 165° |
| 2026-05-08 13:09 | 22.36177 | -65.20993 | 35089 ft | 480 kts | 164° |
| 2026-05-08 13:10 | 22.29766 | -65.19161 | 35088 ft | 480 kts | 165° |
| 2026-05-08 13:10 | 22.23303 | -65.17329 | 35084 ft | 480 kts | 165° |
| 2026-05-08 13:11 | 22.16839 | -65.15497 | 35087 ft | 480 kts | 164° |
| 2026-05-08 13:11 | 22.10388 | -65.13621 | 35088 ft | 480 kts | 160° |
| 2026-05-08 13:12 | 22.04298 | -65.10725 | 35093 ft | 479 kts | 153° |
| 2026-05-08 13:12 | 21.98271 | -65.07659 | 35092 ft | 479 kts | 153° |
| 2026-05-08 13:13 | 21.92235 | -65.04607 | 35093 ft | 479 kts | 153° |
| 2026-05-08 13:13 | 21.86199 | -65.01552 | 35089 ft | 479 kts | 153° |
| 2026-05-08 13:14 | 21.80168 | -64.98487 | 35091 ft | 479 kts | 153° |
| 2026-05-08 13:14 | 21.74132 | -64.95442 | 35090 ft | 479 kts | 153° |
| 2026-05-08 13:15 | 21.68098 | -64.92396 | 35087 ft | 479 kts | 153° |
| 2026-05-08 13:15 | 21.62068 | -64.89348 | 35082 ft | 479 kts | 153° |
| 2026-05-08 13:16 | 21.56036 | -64.86306 | 35077 ft | 479 kts | 153° |
| 2026-05-08 13:16 | 21.49999 | -64.83270 | 35080 ft | 479 kts | 153° |
| 2026-05-08 13:17 | 21.43964 | -64.80231 | 35084 ft | 479 kts | 153° |
| 2026-05-08 13:17 | 21.37929 | -64.77186 | 35081 ft | 479 kts | 153° |
| 2026-05-08 13:18 | 21.31930 | -64.74168 | 35085 ft | 480 kts | 153° |
| 2026-05-08 13:18 | 21.25882 | -64.71139 | 35086 ft | 480 kts | 153° |
| 2026-05-08 13:19 | 21.19836 | -64.68103 | 35085 ft | 480 kts | 153° |
| 2026-05-08 13:19 | 21.13792 | -64.65065 | 35088 ft | 480 kts | 153° |
| 2026-05-08 13:20 | 21.07745 | -64.62043 | 35087 ft | 480 kts | 153° |
| 2026-05-08 13:20 | 21.01698 | -64.59025 | 35086 ft | 479 kts | 153° |
| 2026-05-08 13:21 | 20.95657 | -64.56009 | 35086 ft | 479 kts | 153° |
| 2026-05-08 13:21 | 20.89616 | -64.52988 | 35087 ft | 479 kts | 153° |
| 2026-05-08 13:22 | 20.83567 | -64.49969 | 35088 ft | 480 kts | 153° |
| 2026-05-08 13:22 | 20.77516 | -64.46962 | 35087 ft | 480 kts | 153° |
| 2026-05-08 13:23 | 20.71464 | -64.43952 | 35087 ft | 480 kts | 153° |
| 2026-05-08 13:23 | 20.65418 | -64.40938 | 35081 ft | 480 kts | 153° |
| 2026-05-08 13:24 | 20.59371 | -64.37925 | 35083 ft | 480 kts | 153° |
| 2026-05-08 13:24 | 20.53316 | -64.34919 | 35084 ft | 480 kts | 153° |
| 2026-05-08 13:25 | 20.47252 | -64.31923 | 35086 ft | 480 kts | 153° |
| 2026-05-08 13:25 | 20.41193 | -64.28913 | 35087 ft | 480 kts | 152° |
| 2026-05-08 13:26 | 20.35136 | -64.25906 | 35087 ft | 480 kts | 153° |
| 2026-05-08 13:26 | 20.29084 | -64.22885 | 35085 ft | 480 kts | 152° |
| 2026-05-08 13:27 | 20.23042 | -64.19847 | 35087 ft | 480 kts | 152° |
| 2026-05-08 13:27 | 20.16996 | -64.16808 | 35087 ft | 480 kts | 152° |
| 2026-05-08 13:28 | 20.10941 | -64.13790 | 35086 ft | 481 kts | 152° |
| 2026-05-08 13:28 | 20.04888 | -64.10769 | 35094 ft | 481 kts | 152° |
| 2026-05-08 13:29 | 19.98834 | -64.07747 | 35090 ft | 481 kts | 152° |
| 2026-05-08 13:29 | 19.92771 | -64.04735 | 35091 ft | 481 kts | 152° |
| 2026-05-08 13:30 | 19.86755 | -64.01739 | 35091 ft | 481 kts | 152° |
| 2026-05-08 13:30 | 19.80696 | -63.98728 | 35092 ft | 481 kts | 152° |
| 2026-05-08 13:31 | 19.74640 | -63.95718 | 35086 ft | 481 kts | 152° |
| 2026-05-08 13:31 | 19.68583 | -63.92709 | 35089 ft | 481 kts | 152° |
| 2026-05-08 13:32 | 19.62524 | -63.89698 | 35084 ft | 481 kts | 152° |
| 2026-05-08 13:32 | 19.56461 | -63.86690 | 35086 ft | 481 kts | 152° |
| 2026-05-08 13:33 | 19.50395 | -63.83692 | 35086 ft | 481 kts | 152° |
| 2026-05-08 13:33 | 19.44330 | -63.80693 | 35092 ft | 481 kts | 152° |
| 2026-05-08 13:34 | 19.38266 | -63.77695 | 35089 ft | 481 kts | 152° |
| 2026-05-08 13:34 | 19.32207 | -63.74697 | 35092 ft | 480 kts | 152° |
| 2026-05-08 13:35 | 19.26148 | -63.71707 | 35090 ft | 480 kts | 152° |
| 2026-05-08 13:35 | 19.20093 | -63.68726 | 35096 ft | 480 kts | 152° |
| 2026-05-08 13:36 | 19.14043 | -63.65743 | 35091 ft | 479 kts | 152° |
| 2026-05-08 13:36 | 19.07998 | -63.62764 | 35086 ft | 479 kts | 152° |
| 2026-05-08 13:37 | 19.01961 | -63.59794 | 35084 ft | 478 kts | 152° |
| 2026-05-08 13:37 | 18.95928 | -63.56831 | 35081 ft | 478 kts | 152° |
| 2026-05-08 13:38 | 18.89897 | -63.53871 | 35077 ft | 478 kts | 151° |
| 2026-05-08 13:38 | 18.83869 | -63.50899 | 35077 ft | 478 kts | 151° |
| 2026-05-08 13:39 | 18.77839 | -63.47934 | 35076 ft | 478 kts | 152° |
| 2026-05-08 13:39 | 18.71806 | -63.44985 | 35076 ft | 478 kts | 152° |
| 2026-05-08 13:40 | 18.65773 | -63.42033 | 35075 ft | 478 kts | 151° |
| 2026-05-08 13:40 | 18.59740 | -63.39079 | 35077 ft | 478 kts | 151° |
| 2026-05-08 13:41 | 18.53744 | -63.36155 | 35079 ft | 478 kts | 151° |
| 2026-05-08 13:41 | 18.47711 | -63.33216 | 35075 ft | 478 kts | 151° |
| 2026-05-08 13:42 | 18.41680 | -63.30272 | 35072 ft | 478 kts | 151° |
| 2026-05-08 13:42 | 18.35653 | -63.27328 | 35070 ft | 478 kts | 151° |
| 2026-05-08 13:43 | 18.29621 | -63.24390 | 35071 ft | 478 kts | 151° |
| 2026-05-08 13:43 | 18.23591 | -63.21455 | 35070 ft | 478 kts | 151° |
| 2026-05-08 13:44 | 18.17562 | -63.18511 | 35065 ft | 478 kts | 151° |
| 2026-05-08 13:44 | 18.12548 | -63.16072 | 35089 ft | 478 kts | 151° |
| 2026-05-08 13:45 | 18.06507 | -63.13139 | 35090 ft | 478 kts | 151° |
| 2026-05-08 13:45 | 18.00473 | -63.10179 | 35092 ft | 478 kts | 150° |
| 2026-05-08 13:46 | 17.94478 | -63.07136 | 35089 ft | 479 kts | 149° |
| 2026-05-08 13:46 | 17.88488 | -63.04070 | 35083 ft | 479 kts | 150° |
| 2026-05-08 13:47 | 17.82483 | -63.01028 | 35064 ft | 480 kts | 150° |
| 2026-05-08 13:47 | 17.76462 | -62.97997 | 35063 ft | 480 kts | 150° |
| 2026-05-08 13:48 | 17.70439 | -62.94963 | 35063 ft | 480 kts | 150° |
| 2026-05-08 13:48 | 17.64415 | -62.91928 | 35062 ft | 481 kts | 150° |
| 2026-05-08 13:49 | 17.58385 | -62.88889 | 35061 ft | 481 kts | 150° |
| 2026-05-08 13:49 | 17.52356 | -62.85848 | 35061 ft | 481 kts | 150° |
| 2026-05-08 13:50 | 17.46421 | -62.82651 | 35058 ft | 476 kts | 141° |
| 2026-05-08 13:50 | 17.41012 | -62.78697 | 35061 ft | 474 kts | 140° |
| 2026-05-08 13:51 | 17.35598 | -62.74737 | 35064 ft | 475 kts | 140° |
| 2026-05-08 13:51 | 17.30182 | -62.70781 | 35065 ft | 475 kts | 140° |
| 2026-05-08 13:52 | 17.24806 | -62.66852 | 35065 ft | 474 kts | 140° |
| 2026-05-08 13:52 | 17.19396 | -62.62893 | 35066 ft | 475 kts | 140° |
| 2026-05-08 13:53 | 17.13979 | -62.58945 | 35062 ft | 474 kts | 140° |
| 2026-05-08 13:53 | 17.08559 | -62.55008 | 35064 ft | 474 kts | 140° |
| 2026-05-08 13:54 | 17.03148 | -62.51074 | 35067 ft | 474 kts | 140° |
| 2026-05-08 13:54 | 16.97740 | -62.47140 | 35073 ft | 474 kts | 140° |
| 2026-05-08 13:55 | 16.92337 | -62.43202 | 35084 ft | 473 kts | 140° |
| 2026-05-08 13:55 | 16.86930 | -62.39270 | 34962 ft | 474 kts | 140° |
| 2026-05-08 13:56 | 16.84225 | -62.37308 | 34727 ft | 473 kts | 140° |
| 2026-05-08 13:56 | 16.81519 | -62.35346 | 34503 ft | 474 kts | 140° |
| 2026-05-08 13:56 | 16.78810 | -62.33384 | 34276 ft | 474 kts | 140° |
| 2026-05-08 13:56 | 16.76101 | -62.31421 | 34038 ft | 474 kts | 140° |
| 2026-05-08 13:57 | 16.73428 | -62.29484 | 33795 ft | 474 kts | 140° |
| 2026-05-08 13:57 | 16.70719 | -62.27521 | 33547 ft | 474 kts | 140° |
| 2026-05-08 13:57 | 16.68011 | -62.25560 | 33276 ft | 474 kts | 140° |
| 2026-05-08 13:57 | 16.65304 | -62.23600 | 33020 ft | 473 kts | 140° |
| 2026-05-08 13:58 | 16.62606 | -62.21648 | 32774 ft | 471 kts | 140° |
| 2026-05-08 13:58 | 16.59923 | -62.19704 | 32519 ft | 469 kts | 140° |
| 2026-05-08 13:58 | 16.57212 | -62.17826 | 32262 ft | 469 kts | 145° |
| 2026-05-08 13:58 | 16.54252 | -62.16364 | 32017 ft | 473 kts | 155° |
| 2026-05-08 13:59 | 16.51153 | -62.15219 | 31774 ft | 472 kts | 156° |
| 2026-05-08 13:59 | 16.48066 | -62.14085 | 31531 ft | 469 kts | 156° |
| 2026-05-08 13:59 | 16.44993 | -62.12953 | 31286 ft | 467 kts | 156° |
| 2026-05-08 13:59 | 16.41938 | -62.11824 | 31050 ft | 465 kts | 156° |
| 2026-05-08 14:00 | 16.38895 | -62.10697 | 30817 ft | 463 kts | 156° |
| 2026-05-08 14:00 | 16.35865 | -62.09576 | 30587 ft | 461 kts | 156° |
| 2026-05-08 14:00 | 16.32852 | -62.08461 | 30355 ft | 459 kts | 156° |
| 2026-05-08 14:00 | 16.29847 | -62.07350 | 30120 ft | 457 kts | 156° |
| 2026-05-08 14:01 | 16.26857 | -62.06246 | 29857 ft | 455 kts | 156° |
| 2026-05-08 14:01 | 16.23880 | -62.05147 | 29581 ft | 453 kts | 156° |
| 2026-05-08 14:01 | 16.20915 | -62.04053 | 29316 ft | 451 kts | 156° |
| 2026-05-08 14:01 | 16.17964 | -62.02961 | 29052 ft | 449 kts | 156° |
| 2026-05-08 14:02 | 16.15023 | -62.01871 | 28783 ft | 447 kts | 156° |
| 2026-05-08 14:02 | 16.12096 | -62.00787 | 28531 ft | 446 kts | 156° |
| 2026-05-08 14:02 | 16.09178 | -61.99713 | 28275 ft | 444 kts | 156° |
| 2026-05-08 14:02 | 16.06267 | -61.98645 | 28024 ft | 443 kts | 156° |
| 2026-05-08 14:03 | 16.03367 | -61.97584 | 27771 ft | 441 kts | 156° |
| 2026-05-08 14:03 | 16.00478 | -61.96525 | 27519 ft | 439 kts | 156° |
| 2026-05-08 14:03 | 15.97601 | -61.95464 | 27268 ft | 438 kts | 156° |
| 2026-05-08 14:03 | 15.94736 | -61.94406 | 27026 ft | 436 kts | 156° |
| 2026-05-08 14:04 | 15.91916 | -61.93367 | 26783 ft | 435 kts | 156° |
| 2026-05-08 14:04 | 15.89068 | -61.92320 | 26541 ft | 433 kts | 156° |
| 2026-05-08 14:04 | 15.86231 | -61.91276 | 26296 ft | 432 kts | 156° |
| 2026-05-08 14:04 | 15.83401 | -61.90231 | 26056 ft | 431 kts | 156° |
| 2026-05-08 14:05 | 15.80582 | -61.89190 | 25821 ft | 429 kts | 156° |
| 2026-05-08 14:05 | 15.77771 | -61.88154 | 25585 ft | 428 kts | 156° |
| 2026-05-08 14:05 | 15.74966 | -61.87124 | 25350 ft | 427 kts | 157° |
| 2026-05-08 14:05 | 15.72168 | -61.86099 | 25127 ft | 426 kts | 157° |
| 2026-05-08 14:06 | 15.69377 | -61.85080 | 24900 ft | 425 kts | 157° |
| 2026-05-08 14:06 | 15.66595 | -61.84063 | 24674 ft | 423 kts | 156° |
| 2026-05-08 14:06 | 15.63821 | -61.83045 | 24449 ft | 422 kts | 157° |
| 2026-05-08 14:06 | 15.61054 | -61.82030 | 24231 ft | 421 kts | 156° |
| 2026-05-08 14:07 | 15.58298 | -61.81017 | 24005 ft | 420 kts | 156° |
| 2026-05-08 14:07 | 15.55547 | -61.80008 | 23785 ft | 419 kts | 156° |
| 2026-05-08 14:07 | 15.52767 | -61.78990 | 23552 ft | 418 kts | 156° |
| 2026-05-08 14:07 | 15.50070 | -61.78002 | 23292 ft | 416 kts | 156° |
| 2026-05-08 14:08 | 15.47349 | -61.77004 | 23037 ft | 414 kts | 157° |
| 2026-05-08 14:08 | 15.44638 | -61.76012 | 22776 ft | 412 kts | 157° |
| 2026-05-08 14:08 | 15.41941 | -61.75027 | 22523 ft | 410 kts | 157° |
| 2026-05-08 14:08 | 15.39255 | -61.74045 | 22266 ft | 408 kts | 157° |
| 2026-05-08 14:09 | 15.36582 | -61.73067 | 22016 ft | 406 kts | 157° |
| 2026-05-08 14:09 | 15.33921 | -61.72093 | 21764 ft | 405 kts | 157° |
| 2026-05-08 14:09 | 15.31272 | -61.71125 | 21520 ft | 403 kts | 157° |
| 2026-05-08 14:09 | 15.28633 | -61.70163 | 21274 ft | 401 kts | 157° |
| 2026-05-08 14:10 | 15.26007 | -61.69205 | 21031 ft | 399 kts | 157° |
| 2026-05-08 14:10 | 15.23391 | -61.68249 | 20789 ft | 398 kts | 157° |
| 2026-05-08 14:10 | 15.20788 | -61.67295 | 20550 ft | 396 kts | 157° |
| 2026-05-08 14:10 | 15.18197 | -61.66346 | 20313 ft | 394 kts | 158° |
| 2026-05-08 14:11 | 15.15614 | -61.65403 | 20077 ft | 393 kts | 158° |
| 2026-05-08 14:11 | 15.13103 | -61.64330 | 19851 ft | 388 kts | 149° |
| 2026-05-08 14:11 | 15.10791 | -61.62919 | 19614 ft | 385 kts | 145° |
| 2026-05-08 14:11 | 15.08510 | -61.61473 | 19383 ft | 384 kts | 145° |
| 2026-05-08 14:12 | 15.06236 | -61.60036 | 19158 ft | 382 kts | 145° |
| 2026-05-08 14:12 | 15.03967 | -61.58606 | 18932 ft | 381 kts | 146° |
| 2026-05-08 14:12 | 15.01706 | -61.57183 | 18704 ft | 380 kts | 146° |
| 2026-05-08 14:12 | 14.99453 | -61.55765 | 18471 ft | 379 kts | 146° |
| 2026-05-08 14:13 | 14.97208 | -61.54354 | 18246 ft | 377 kts | 146° |
| 2026-05-08 14:13 | 14.94971 | -61.52948 | 17992 ft | 375 kts | 146° |
| 2026-05-08 14:13 | 14.92742 | -61.51548 | 17729 ft | 373 kts | 146° |
| 2026-05-08 14:13 | 14.90528 | -61.50155 | 17478 ft | 372 kts | 146° |
| 2026-05-08 14:14 | 14.88327 | -61.48770 | 17222 ft | 370 kts | 146° |
| 2026-05-08 14:14 | 14.86136 | -61.47390 | 16972 ft | 368 kts | 147° |
| 2026-05-08 14:14 | 14.83954 | -61.46017 | 16724 ft | 366 kts | 147° |
| 2026-05-08 14:14 | 14.81784 | -61.44654 | 16477 ft | 364 kts | 147° |
| 2026-05-08 14:15 | 14.79623 | -61.43298 | 16227 ft | 362 kts | 147° |
| 2026-05-08 14:15 | 14.77475 | -61.41952 | 15985 ft | 361 kts | 147° |
| 2026-05-08 14:15 | 14.75336 | -61.40611 | 15742 ft | 359 kts | 147° |
| 2026-05-08 14:15 | 14.73214 | -61.39281 | 15494 ft | 354 kts | 147° |
| 2026-05-08 14:16 | 14.71149 | -61.37985 | 15108 ft | 351 kts | 147° |
| 2026-05-08 14:16 | 14.69066 | -61.36677 | 14688 ft | 350 kts | 148° |
| 2026-05-08 14:16 | 14.66991 | -61.35373 | 14281 ft | 349 kts | 148° |
| 2026-05-08 14:16 | 14.64931 | -61.34078 | 13768 ft | 343 kts | 148° |
| 2026-05-08 14:17 | 14.62904 | -61.32804 | 12869 ft | 341 kts | 148° |
| 2026-05-08 14:17 | 14.60802 | -61.31684 | 12483 ft | 339 kts | 162° |
| 2026-05-08 14:17 | 14.58489 | -61.31382 | 12115 ft | 336 kts | 185° |
| 2026-05-08 14:17 | 14.56259 | -61.32014 | 11701 ft | 333 kts | 208° |
| 2026-05-08 14:18 | 14.54396 | -61.33414 | 11263 ft | 332 kts | 225° |
| 2026-05-08 14:18 | 14.52968 | -61.35234 | 11107 ft | 321 kts | 237° |
| 2026-05-08 14:18 | 14.51882 | -61.37194 | 10956 ft | 310 kts | 244° |
| 2026-05-08 14:18 | 14.50930 | -61.39173 | 10660 ft | 306 kts | 244° |
| 2026-05-08 14:19 | 14.50123 | -61.41193 | 10309 ft | 304 kts | 255° |
| 2026-05-08 14:19 | 14.49802 | -61.43325 | 9991 ft | 299 kts | 273° |
| 2026-05-08 14:19 | 14.50197 | -61.45400 | 9637 ft | 294 kts | 295° |
| 2026-05-08 14:19 | 14.51275 | -61.47141 | 9329 ft | 286 kts | 316° |
| 2026-05-08 14:20 | 14.52848 | -61.48335 | 8968 ft | 279 kts | 338° |
| 2026-05-08 14:20 | 14.54684 | -61.48861 | 8755 ft | 273 kts | 358° |
| 2026-05-08 14:20 | 14.56570 | -61.48722 | 8631 ft | 272 kts | 17° |
| 2026-05-08 14:20 | 14.58283 | -61.47940 | 8510 ft | 269 kts | 36° |
| 2026-05-08 14:21 | 14.59623 | -61.46617 | 8388 ft | 267 kts | 55° |
| 2026-05-08 14:21 | 14.60445 | -61.44941 | 8253 ft | 257 kts | 73° |
| 2026-05-08 14:21 | 14.60689 | -61.43163 | 8138 ft | 246 kts | 91° |
| 2026-05-08 14:21 | 14.60396 | -61.41445 | 8018 ft | 243 kts | 108° |
| 2026-05-08 14:22 | 14.59739 | -61.39836 | 7896 ft | 243 kts | 111° |
| 2026-05-08 14:22 | 14.59072 | -61.38234 | 7774 ft | 243 kts | 111° |
| 2026-05-08 14:22 | 14.58411 | -61.36632 | 7662 ft | 242 kts | 111° |
| 2026-05-08 14:22 | 14.57752 | -61.35035 | 7526 ft | 241 kts | 111° |
| 2026-05-08 14:23 | 14.57097 | -61.33444 | 7418 ft | 240 kts | 110° |
| 2026-05-08 14:23 | 14.56713 | -61.31782 | 7290 ft | 238 kts | 97° |
| 2026-05-08 14:23 | 14.56442 | -61.30100 | 7175 ft | 237 kts | 98° |
| 2026-05-08 14:23 | 14.56160 | -61.28434 | 7064 ft | 235 kts | 98° |
| 2026-05-08 14:24 | 14.55881 | -61.26793 | 6891 ft | 235 kts | 98° |
| 2026-05-08 14:24 | 14.55600 | -61.25133 | 6577 ft | 236 kts | 98° |
| 2026-05-08 14:24 | 14.55319 | -61.23459 | 6190 ft | 238 kts | 98° |
| 2026-05-08 14:24 | 14.55062 | -61.21766 | 5800 ft | 240 kts | 96° |
| 2026-05-08 14:25 | 14.55263 | -61.20084 | 5408 ft | 240 kts | 65° |
| 2026-05-08 14:25 | 14.56017 | -61.18562 | 5014 ft | 234 kts | 71° |
| 2026-05-08 14:25 | 14.56313 | -61.16954 | 4656 ft | 222 kts | 82° |
| 2026-05-08 14:25 | 14.56525 | -61.15419 | 4269 ft | 211 kts | 80° |
| 2026-05-08 14:26 | 14.56762 | -61.13965 | 3945 ft | 200 kts | 80° |
| 2026-05-08 14:26 | 14.56992 | -61.12600 | 3612 ft | 187 kts | 80° |
| 2026-05-08 14:26 | 14.57208 | -61.11303 | 3172 ft | 181 kts | 79° |
| 2026-05-08 14:26 | 14.57443 | -61.10027 | 2642 ft | 180 kts | 79° |
| 2026-05-08 14:27 | 14.57664 | -61.08807 | 2246 ft | 167 kts | 78° |
| 2026-05-08 14:27 | 14.57885 | -61.07645 | 1731 ft | 164 kts | 78° |
| 2026-05-08 14:27 | 14.58071 | -61.06510 | 1309 ft | 156 kts | 81° |
| 2026-05-08 14:27 | 14.58233 | -61.05467 | 1009 ft | 140 kts | 80° |
| 2026-05-08 14:28 | 14.58398 | -61.04512 | 730 ft | 131 kts | 80° |
| 2026-05-08 14:28 | 14.58550 | -61.03595 | 535 ft | 128 kts | 77° |
| 2026-05-08 14:28 | 14.58702 | -61.02669 | 360 ft | 133 kts | 72° |
| 2026-05-08 14:28 | 14.58870 | -61.01737 | 115 ft | 132 kts | 78° |
| 2026-05-08 14:29 | 14.59014 | -61.00834 | 22 ft | 119 kts | 73° |
| 2026-05-08 14:29 | 14.59131 | -61.00177 | 16 ft | 43 kts | 80° |
| 2026-05-08 14:29 | 14.59160 | -61.00036 | 17 ft | 13 kts | 58° |
| 2026-05-08 14:29 | 14.59232 | -61.00022 | 19 ft | 8 kts | 355° |
| 2026-05-08 14:30 | 14.59267 | -61.00028 | 20 ft | 4 kts | 349° |
| 2026-05-08 14:30 | 14.59291 | -61.00032 | 20 ft | 3 kts | 349° |
| 2026-05-08 14:30 | 14.59336 | -61.00041 | 20 ft | 8 kts | 345° |
| 2026-05-08 14:30 | 14.59376 | -61.00083 | 20 ft | 10 kts | 300° |
| 2026-05-08 14:31 | 14.59403 | -61.00142 | 20 ft | 9 kts | 299° |
| 2026-05-08 14:31 | 14.59443 | -61.00200 | 20 ft | 11 kts | 308° |
| 2026-05-08 14:31 | 14.59497 | -61.00251 | 21 ft | 10 kts | 325° |
| 2026-05-08 14:32 | 14.59554 | -61.00340 | 21 ft | 8 kts | 235° |
| 2026-05-08 14:32 | 14.59533 | -61.00384 | 23 ft | 5 kts | 246° |
| 2026-05-08 14:32 | 14.59530 | -61.00389 | 22 ft | 0 kts | 246° |